Terminal Aerodrome Forecast
Issued by NWS

Home | Current Version | Previous Version | Text Only | Print | Product List | Glossary On
Versions: 1 2 3 4 5 6 7 8 9 10 11 12 13 14 15 16
628
FTUS46 KMTR 222338
TAFOAK
TAF
KOAK 222338Z 2300/2406 28017KT P6SM SCT040
     FM230400 28011KT P6SM FEW050 FEW100
     FM230900 28006KT P6SM FEW030
     FM231100 VRB04KT P6SM FEW020
     FM231800 25007KT P6SM SKC
     FM232200 24011KT P6SM SCT200
     FM240400 16006KT P6SM BKN120=

USA.gov is the U.S. government's official web portal to all federal, state and local government web resources and services.